Tuesday, January 23, 2018, 7:23 AM EST
Back to Local

KIDI, Indiana / Stewart Field

Location: Indiana, PA, United States Lat: 40.633
Local Time: 7:23 AM EST (12:23 GMT) Lon: -79.1
Time Zone: US/Eastern Elev: 1407 ft

Show me the last for .
Show Decoded

2018-01-23 06:55 METAR KIDI 231155Z AUTO 00000KT 6SM BR OVC039 08/08 A2964 RMK A01 =
2018-01-23 06:35 METAR KIDI 231135Z AUTO 19005KT 6SM BR FEW024 BKN036 OVC050 08/08 A2967 RMK A01
                 =
2018-01-23 06:15 METAR KIDI 231115Z AUTO 20005KT 5SM BR FEW018 SCT034 OVC044 08/08 A2967 RMK A01
                 =
2018-01-23 05:55 METAR KIDI 231055Z AUTO 21004KT 6SM BR FEW017 SCT024 OVC045 08/08 A2968 RMK A01
                 =
2018-01-23 05:35 METAR KIDI 231035Z AUTO 25003KT 10SM BKN016 BKN023 OVC060 08/08 A2967 RMK A01 =
2018-01-23 05:15 METAR KIDI 231015Z AUTO 23004KT 4SM BR OVC015 08/08 A2968 RMK A01 =
2018-01-23 04:55 METAR KIDI 230955Z AUTO 21007KT 10SM BKN015 OVC055 08/08 A2969 RMK A01 =
2018-01-23 04:35 METAR KIDI 230935Z AUTO 22004KT 9SM BKN017 BKN032 OVC055 09/08 A2968 RMK A01 =
2018-01-23 04:15 METAR KIDI 230915Z AUTO 24006G14KT 5SM BR SCT018 BKN027 OVC044 09/08 A2969 RMK
                 A01 =
2018-01-23 03:55 METAR KIDI 230855Z AUTO 26012G20KT 10SM FEW031 BKN045 OVC080 10/08 A2969 RMK A01
                 =
2018-01-23 03:35 METAR KIDI 230835Z AUTO 22015G24KT 180V270 10SM SCT049 SCT060 BKN080 12/07 A2965
                 RMK A01 =
2018-01-23 02:55 METAR KIDI 230755Z AUTO 16010G18KT 10SM BKN060 BKN070 12/07 A2964 RMK A01 =
2018-01-23 02:35 METAR KIDI 230735Z AUTO 16010G18KT 10SM FEW065 12/07 A2965 RMK A01 =
2018-01-23 02:15 METAR KIDI 230715Z AUTO 17010KT 10SM CLR 12/06 A2966 RMK A01 =
2018-01-23 01:55 METAR KIDI 230655Z AUTO 16012KT 10SM CLR 12/06 A2967 RMK A01 =
2018-01-23 01:35 METAR KIDI 230635Z AUTO 15011G20KT 10SM FEW050 11/06 A2969 RMK A01 =
2018-01-23 01:15 METAR KIDI 230615Z AUTO 15008G13KT 10SM BKN050 BKN060 11/06 A2970 RMK A01 =
2018-01-23 00:55 METAR KIDI 230555Z AUTO 16008G15KT 130V190 10SM BKN060 OVC070 11/07 A2971 RMK
                 A01 =
2018-01-23 00:35 METAR KIDI 230535Z AUTO 16008G15KT 130V190 10SM BKN065 OVC075 11/07 A2972 RMK
                 A01 =
2018-01-23 00:15 METAR KIDI 230515Z AUTO 14009G16KT 10SM SCT055 OVC065 11/07 A2973 RMK A01 =
2018-01-22 23:55 METAR KIDI 230455Z AUTO 16008G14KT 140V200 7SM FEW024 BKN060 OVC070 11/08 A2975
                 RMK A01 =
2018-01-22 23:35 METAR KIDI 230435Z AUTO 14010G18KT 7SM FEW031 BKN060 OVC070 11/08 A2976 RMK A01
                 =
2018-01-22 23:15 METAR KIDI 230415Z AUTO 15009G15KT 6SM HZ FEW033 SCT055 OVC065 11/07 A2978 RMK
                 A01 =
2018-01-22 22:55 METAR KIDI 230355Z AUTO 16012G18KT 7SM FEW034 BKN065 OVC075 12/07 A2979 RMK A01
                 =
2018-01-22 22:35 METAR KIDI 230335Z AUTO 15008KT 9SM FEW033 BKN070 OVC075 12/07 A2980 RMK A01 =
2018-01-22 22:15 METAR KIDI 230315Z AUTO 15008G13KT 7SM FEW030 FEW049 OVC065 12/07 A2981 RMK A01
                 =
2018-01-22 21:55 METAR KIDI 230255Z AUTO 17006KT 9SM FEW043 BKN065 OVC075 13/07 A2983 RMK A01 =
2018-01-22 21:35 METAR KIDI 230235Z AUTO 16010KT 10SM FEW055 BKN065 OVC075 14/06 A2983 RMK A01 =
2018-01-22 21:15 METAR KIDI 230215Z AUTO 16009KT 10SM OVC060 13/06 A2984 RMK A01 =
2018-01-22 20:55 METAR KIDI 230155Z AUTO 16009KT 10SM SCT060 BKN110 13/07 A2985 RMK A01 =
2018-01-22 20:35 METAR KIDI 230135Z AUTO 16008G17KT 10SM FEW060 SCT110 13/07 A2985 RMK A01 =
2018-01-22 20:15 METAR KIDI 230115Z AUTO 16010G17KT 10SM SCT110 14/07 A2986 RMK A01 =
2018-01-22 19:55 METAR KIDI 230055Z AUTO 15012G19KT 10SM FEW110 14/07 A2986 RMK A01 =
2018-01-22 19:35 METAR KIDI 230035Z AUTO 15010G18KT 10SM SCT070 SCT120 14/07 A2986 RMK A01 =
2018-01-22 19:15 METAR KIDI 230015Z AUTO 16012G19KT 10SM BKN070 14/07 A2987 RMK A01 =
2018-01-22 18:55 METAR KIDI 222355Z AUTO 16010G18KT 130V190 10SM BKN070 14/07 A2988 RMK A01 =
2018-01-22 18:35 METAR KIDI 222335Z AUTO 16009KT 140V200 10SM SCT070 14/07 A2988 RMK A01 =
2018-01-22 18:15 METAR KIDI 222315Z AUTO 17010G15KT 10SM CLR 14/07 A2989 RMK A01 =
2018-01-22 17:55 METAR KIDI 222255Z AUTO 17011G17KT 10SM CLR 15/07 A2988 RMK A01 =
2018-01-22 17:35 METAR KIDI 222235Z AUTO 15011G16KT 120V180 10SM CLR 15/07 A2989 RMK A01 =
2018-01-22 17:15 METAR KIDI 222215Z AUTO 15008KT 10SM CLR 15/07 A2988 RMK A01 =
2018-01-22 16:55 METAR KIDI 222155Z AUTO 15006G12KT 10SM CLR 15/08 A2989 RMK A01 =
2018-01-22 16:35 METAR KIDI 222135Z AUTO 14007G12KT 10SM CLR 15/08 A2990 RMK A01 =
2018-01-22 16:15 METAR KIDI 222115Z AUTO 16008KT 10SM CLR 16/08 A2991 RMK A01 =
2018-01-22 15:55 METAR KIDI 222055Z AUTO 17006KT 10SM CLR 15/09 A2991 RMK A01 =
2018-01-22 15:35 METAR KIDI 222035Z AUTO 17006KT 10SM CLR 16/09 A2991 RMK A01 =
2018-01-22 15:15 METAR KIDI 222015Z AUTO 18006KT 10SM FEW090 17/09 A2992 RMK A01 =
2018-01-22 14:55 METAR KIDI 221955Z AUTO 17006KT 10SM SCT090 17/09 A2992 RMK A01 =
2018-01-22 14:35 METAR KIDI 221935Z AUTO 17007KT 10SM CLR 17/10 A2993 RMK A01 =
2018-01-22 13:55 METAR KIDI 221855Z AUTO 16005G10KT 10SM FEW075 SCT110 16/10 A2995 RMK A01 =
2018-01-22 13:35 METAR KIDI 221835Z AUTO 16007KT 10SM SCT110 16/10 A2996 RMK A01 =
2018-01-22 13:15 METAR KIDI 221815Z AUTO 17008KT 120V190 10SM FEW080 16/10 A2997 RMK A01 =
2018-01-22 12:55 METAR KIDI 221755Z AUTO 17009KT 10SM FEW070 FEW110 16/10 A2998 RMK A01 =
2018-01-22 12:35 METAR KIDI 221735Z AUTO 17008KT 10SM CLR 16/10 A3000 RMK A01 =
2018-01-22 12:15 METAR KIDI 221715Z AUTO 19006KT 10SM SCT060 15/10 A3002 RMK A01 =
2018-01-22 11:55 METAR KIDI 221655Z AUTO 19008KT 10SM OVC060 15/10 A3003 RMK A01 =
2018-01-22 11:35 METAR KIDI 221635Z AUTO 18006KT 10SM SCT050 14/10 A3004 RMK A01 =
2018-01-22 11:15 METAR KIDI 221615Z AUTO 17007KT 10SM CLR 14/10 A3005 RMK A01 =
2018-01-22 10:55 METAR KIDI 221555Z AUTO 17007KT 10SM BKN110 13/11 A3006 RMK A01 =
2018-01-22 10:35 METAR KIDI 221535Z AUTO 16005KT 10SM BKN110 11/11 A3006 RMK A01 =
2018-01-22 10:15 METAR KIDI 221515Z AUTO 00000KT 10SM SCT075 SCT090 OVC110 10/10 A3007 RMK A01 =
2018-01-22 09:55 METAR KIDI 221455Z AUTO 13004KT 10SM FEW080 FEW090 OVC110 09/09 A3008 RMK A01 =
2018-01-22 09:35 METAR KIDI 221435Z AUTO 00000KT 3/4SM BR SCT047 BKN080 OVC090 08/08 A3008 RMK
                 A01 =
2018-01-22 09:15 METAR KIDI 221415Z AUTO 10004KT 4SM BR FEW047 BKN055 OVC090 07/07 A3009 RMK A01
                 =
2018-01-22 08:55 METAR KIDI 221355Z AUTO 11003KT 3/4SM BR SCT018 BKN025 OVC050 07/07 A3009 RMK
                 A01 =
2018-01-22 08:35 METAR KIDI 221335Z AUTO 00000KT M1/4SM FG BKN008 OVC019 06/06 A3009 RMK A01 =
2018-01-22 08:15 METAR KIDI 221315Z AUTO 00000KT 1 1/2SM BR FEW008 BKN021 OVC039 08/08 A3009 RMK
                 A01 =
2018-01-22 07:55 METAR KIDI 221255Z AUTO 00000KT 4SM BR SCT026 BKN034 OVC041 07/07 A3010 RMK A01
                 =
2018-01-22 07:35 METAR KIDI 221235Z AUTO 00000KT 5SM BR BKN030 OVC036 07/07 A3010 RMK A01 =

Support USWX by starting your Amazon purchase here.